sensor_id;sensor_type;location;lat;lon;timestamp;pressure;altitude;pressure_sealevel;temperature;humidity
55470;BME280;41334;47.872;16.384;2023-05-16T00:02:17;98587.41;;;10.74;77.78
55470;BME280;41334;47.872;16.384;2023-05-16T00:07:19;98586.75;;;10.68;77.89
55470;BME280;41334;47.872;16.384;2023-05-16T00:12:21;98594.22;;;10.68;78.00
55470;BME280;41334;47.872;16.384;2023-05-16T00:17:23;98594.56;;;10.66;79.18
55470;BME280;41334;47.872;16.384;2023-05-16T00:22:29;98585.28;;;10.62;80.13
55470;BME280;41334;47.872;16.384;2023-05-16T00:27:35;98578.13;;;10.61;81.26
55470;BME280;41334;47.872;16.384;2023-05-16T00:32:37;98579.28;;;10.60;80.35
55470;BME280;41334;47.872;16.384;2023-05-16T00:37:41;98568.84;;;10.57;79.34
55470;BME280;41334;47.872;16.384;2023-05-16T00:42:42;98570.81;;;10.57;79.29
55470;BME280;41334;47.872;16.384;2023-05-16T00:47:44;98570.31;;;10.55;79.14
55470;BME280;41334;47.872;16.384;2023-05-16T00:52:46;98572.09;;;10.51;79.17
55470;BME280;41334;47.872;16.384;2023-05-16T00:57:49;98573.06;;;10.46;79.73
55470;BME280;41334;47.872;16.384;2023-05-16T01:02:51;98575.16;;;10.40;80.00
55470;BME280;41334;47.872;16.384;2023-05-16T01:07:54;98576.41;;;10.34;80.09
55470;BME280;41334;47.872;16.384;2023-05-16T01:13:14;98583.72;;;10.30;80.07
55470;BME280;41334;47.872;16.384;2023-05-16T01:18:41;98574.09;;;10.28;80.09
55470;BME280;41334;47.872;16.384;2023-05-16T01:23:58;98560.81;;;10.30;79.82
55470;BME280;41334;47.872;16.384;2023-05-16T01:29:02;98567.00;;;10.35;80.11
55470;BME280;41334;47.872;16.384;2023-05-16T01:34:04;98552.41;;;10.35;79.92
55470;BME280;41334;47.872;16.384;2023-05-16T01:44:19;98522.19;;;10.38;79.52
55470;BME280;41334;47.872;16.384;2023-05-16T01:49:46;98521.88;;;10.40;79.42
55470;BME280;41334;47.872;16.384;2023-05-16T01:54:52;98525.13;;;10.42;79.84
55470;BME280;41334;47.872;16.384;2023-05-16T01:59:57;98541.34;;;10.43;79.70
55470;BME280;41334;47.872;16.384;2023-05-16T02:05:02;98552.91;;;10.45;79.79
55470;BME280;41334;47.872;16.384;2023-05-16T02:10:04;98561.84;;;10.51;79.67
55470;BME280;41334;47.872;16.384;2023-05-16T02:15:09;98558.78;;;10.53;79.97
55470;BME280;41334;47.872;16.384;2023-05-16T02:20:12;98558.28;;;10.51;80.31
55470;BME280;41334;47.872;16.384;2023-05-16T02:25:14;98552.44;;;10.52;81.26
55470;BME280;41334;47.872;16.384;2023-05-16T02:30:16;98546.59;;;10.54;81.49
55470;BME280;41334;47.872;16.384;2023-05-16T02:35:18;98525.16;;;10.59;81.74
55470;BME280;41334;47.872;16.384;2023-05-16T02:40:20;98490.25;;;10.63;81.09
55470;BME280;41334;47.872;16.384;2023-05-16T02:45:22;98498.53;;;10.63;80.57
55470;BME280;41334;47.872;16.384;2023-05-16T02:50:24;98516.06;;;10.59;80.01
55470;BME280;41334;47.872;16.384;2023-05-16T02:55:27;98515.75;;;10.60;79.84
55470;BME280;41334;47.872;16.384;2023-05-16T03:00:30;98506.00;;;10.63;79.80
55470;BME280;41334;47.872;16.384;2023-05-16T03:05:32;98486.69;;;10.63;80.96
55470;BME280;41334;47.872;16.384;2023-05-16T03:10:34;98476.75;;;10.70;83.67
55470;BME280;41334;47.872;16.384;2023-05-16T03:15:36;98477.09;;;10.69;81.99
55470;BME280;41334;47.872;16.384;2023-05-16T03:20:38;98486.03;;;10.74;80.58
55470;BME280;41334;47.872;16.384;2023-05-16T03:25:40;98481.19;;;10.89;78.52
55470;BME280;41334;47.872;16.384;2023-05-16T03:30:44;98491.75;;;11.04;77.31
55470;BME280;41334;47.872;16.384;2023-05-16T03:35:46;98495.63;;;11.20;75.91
55470;BME280;41334;47.872;16.384;2023-05-16T03:40:48;98509.75;;;11.27;76.24
55470;BME280;41334;47.872;16.384;2023-05-16T03:45:49;98515.13;;;11.33;76.18
55470;BME280;41334;47.872;16.384;2023-05-16T03:50:51;98513.50;;;11.40;75.99
55470;BME280;41334;47.872;16.384;2023-05-16T03:55:53;98495.44;;;11.43;75.25
55470;BME280;41334;47.872;16.384;2023-05-16T04:00:55;98487.78;;;11.48;74.83
55470;BME280;41334;47.872;16.384;2023-05-16T04:05:57;98486.78;;;11.53;75.26
55470;BME280;41334;47.872;16.384;2023-05-16T04:10:59;98511.34;;;11.63;74.62
55470;BME280;41334;47.872;16.384;2023-05-16T04:16:00;98511.47;;;11.75;74.45
55470;BME280;41334;47.872;16.384;2023-05-16T04:21:02;98501.38;;;11.88;74.73
55470;BME280;41334;47.872;16.384;2023-05-16T04:26:05;98513.53;;;12.04;73.63
55470;BME280;41334;47.872;16.384;2023-05-16T04:31:06;98518.53;;;12.11;73.39
55470;BME280;41334;47.872;16.384;2023-05-16T04:36:08;98529.44;;;12.16;73.72
55470;BME280;41334;47.872;16.384;2023-05-16T04:41:10;98545.69;;;12.26;73.68
55470;BME280;41334;47.872;16.384;2023-05-16T04:46:12;98558.56;;;12.22;74.28
55470;BME280;41334;47.872;16.384;2023-05-16T04:51:16;98541.50;;;12.12;74.85
55470;BME280;41334;47.872;16.384;2023-05-16T04:56:17;98534.00;;;12.12;75.02
55470;BME280;41334;47.872;16.384;2023-05-16T05:01:20;98542.22;;;12.29;74.15
55470;BME280;41334;47.872;16.384;2023-05-16T05:06:22;98547.22;;;12.45;73.68
55470;BME280;41334;47.872;16.384;2023-05-16T05:11:24;98545.69;;;12.56;73.46
55470;BME280;41334;47.872;16.384;2023-05-16T05:16:27;98551.16;;;12.73;73.04
55470;BME280;41334;47.872;16.384;2023-05-16T05:21:30;98563.47;;;12.84;73.62
55470;BME280;41334;47.872;16.384;2023-05-16T05:26:32;98572.31;;;12.99;74.99
55470;BME280;41334;47.872;16.384;2023-05-16T05:31:34;98571.66;;;13.02;73.55
55470;BME280;41334;47.872;16.384;2023-05-16T05:36:36;98552.50;;;13.09;72.96
55470;BME280;41334;47.872;16.384;2023-05-16T05:41:38;98565.50;;;12.96;73.60
55470;BME280;41334;47.872;16.384;2023-05-16T05:46:40;98553.81;;;13.11;74.11
55470;BME280;41334;47.872;16.384;2023-05-16T05:51:42;98555.22;;;13.18;73.33
55470;BME280;41334;47.872;16.384;2023-05-16T05:56:44;98540.84;;;13.24;72.85
55470;BME280;41334;47.872;16.384;2023-05-16T06:01:46;98546.22;;;13.21;72.71
55470;BME280;41334;47.872;16.384;2023-05-16T06:06:53;98538.88;;;13.25;73.46
55470;BME280;41334;47.872;16.384;2023-05-16T06:11:54;98549.41;;;13.31;73.29
55470;BME280;41334;47.872;16.384;2023-05-16T06:16:57;98546.16;;;13.50;73.29
55470;BME280;41334;47.872;16.384;2023-05-16T06:21:59;98530.78;;;13.53;73.25
55470;BME280;41334;47.872;16.384;2023-05-16T06:27:00;98520.72;;;13.81;72.32
55470;BME280;41334;47.872;16.384;2023-05-16T06:32:02;98521.88;;;13.80;72.30
55470;BME280;41334;47.872;16.384;2023-05-16T06:37:04;98520.97;;;14.01;71.69
55470;BME280;41334;47.872;16.384;2023-05-16T06:42:06;98526.44;;;13.97;72.50
55470;BME280;41334;47.872;16.384;2023-05-16T06:47:10;98534.09;;;14.12;71.40
55470;BME280;41334;47.872;16.384;2023-05-16T06:52:12;98537.63;;;13.88;72.43
55470;BME280;41334;47.872;16.384;2023-05-16T06:57:14;98528.91;;;13.78;72.83
55470;BME280;41334;47.872;16.384;2023-05-16T07:02:17;98519.88;;;13.69;73.73
55470;BME280;41334;47.872;16.384;2023-05-16T07:07:18;98536.84;;;13.55;74.13
55470;BME280;41334;47.872;16.384;2023-05-16T07:12:20;98528.28;;;13.60;73.21
55470;BME280;41334;47.872;16.384;2023-05-16T07:17:22;98545.16;;;13.55;73.84
55470;BME280;41334;47.872;16.384;2023-05-16T07:22:24;98557.88;;;13.35;75.20
55470;BME280;41334;47.872;16.384;2023-05-16T07:27:26;98552.19;;;13.31;76.63
55470;BME280;41334;47.872;16.384;2023-05-16T07:32:28;98557.41;;;13.12;79.91
55470;BME280;41334;47.872;16.384;2023-05-16T07:37:30;98576.63;;;12.88;81.61
55470;BME280;41334;47.872;16.384;2023-05-16T07:42:32;98604.66;;;12.95;80.00
55470;BME280;41334;47.872;16.384;2023-05-16T07:47:34;98623.75;;;12.88;81.51
55470;BME280;41334;47.872;16.384;2023-05-16T07:52:36;98620.94;;;12.96;80.19
55470;BME280;41334;47.872;16.384;2023-05-16T07:57:38;98625.94;;;13.03;79.78
55470;BME280;41334;47.872;16.384;2023-05-16T08:02:40;98642.53;;;13.11;80.24
55470;BME280;41334;47.872;16.384;2023-05-16T08:07:42;98644.41;;;13.28;79.94
55470;BME280;41334;47.872;16.384;2023-05-16T08:12:47;98642.41;;;13.38;78.86
55470;BME280;41334;47.872;16.384;2023-05-16T08:17:59;98637.78;;;13.42;80.98
55470;BME280;41334;47.872;16.384;2023-05-16T08:23:01;98646.84;;;13.51;81.07
55470;BME280;41334;47.872;16.384;2023-05-16T08:28:03;98630.41;;;13.46;82.18
55470;BME280;41334;47.872;16.384;2023-05-16T08:33:05;98614.97;;;13.57;83.01
55470;BME280;41334;47.872;16.384;2023-05-16T08:38:07;98608.75;;;13.60;82.27
55470;BME280;41334;47.872;16.384;2023-05-16T08:43:12;98595.19;;;13.79;83.69
55470;BME280;41334;47.872;16.384;2023-05-16T08:48:15;98598.28;;;14.11;80.38
55470;BME280;41334;47.872;16.384;2023-05-16T08:53:21;98576.91;;;14.11;81.25
55470;BME280;41334;47.872;16.384;2023-05-16T08:58:28;98574.34;;;14.06;82.23
55470;BME280;41334;47.872;16.384;2023-05-16T09:03:30;98561.97;;;14.16;80.39
55470;BME280;41334;47.872;16.384;2023-05-16T09:08:32;98557.13;;;14.25;79.94
55470;BME280;41334;47.872;16.384;2023-05-16T09:13:36;98565.69;;;14.32;79.41
55470;BME280;41334;47.872;16.384;2023-05-16T09:18:39;98577.00;;;14.15;78.59
55470;BME280;41334;47.872;16.384;2023-05-16T09:23:41;98586.50;;;14.14;79.13
55470;BME280;41334;47.872;16.384;2023-05-16T09:28:44;98593.06;;;13.97;78.44
55470;BME280;41334;47.872;16.384;2023-05-16T09:33:46;98581.06;;;13.72;80.34
55470;BME280;41334;47.872;16.384;2023-05-16T09:38:50;98603.97;;;13.69;80.38
55470;BME280;41334;47.872;16.384;2023-05-16T09:43:52;98607.41;;;13.45;82.70
55470;BME280;41334;47.872;16.384;2023-05-16T09:48:55;98609.84;;;12.96;84.92
55470;BME280;41334;47.872;16.384;2023-05-16T09:53:58;98616.34;;;13.00;86.99
55470;BME280;41334;47.872;16.384;2023-05-16T09:59:09;98624.06;;;12.95;86.09
55470;BME280;41334;47.872;16.384;2023-05-16T10:04:12;98616.25;;;12.88;87.33
55470;BME280;41334;47.872;16.384;2023-05-16T10:09:17;98612.63;;;12.96;86.94
55470;BME280;41334;47.872;16.384;2023-05-16T10:14:20;98631.41;;;12.91;85.35
55470;BME280;41334;47.872;16.384;2023-05-16T10:19:23;98640.97;;;13.02;85.22
55470;BME280;41334;47.872;16.384;2023-05-16T10:24:43;98619.19;;;13.13;83.76
55470;BME280;41334;47.872;16.384;2023-05-16T10:29:48;98619.41;;;13.37;81.90
55470;BME280;41334;47.872;16.384;2023-05-16T10:34:55;98642.47;;;13.50;82.15
55470;BME280;41334;47.872;16.384;2023-05-16T10:40:01;98636.44;;;13.48;82.70
55470;BME280;41334;47.872;16.384;2023-05-16T10:45:19;98634.88;;;13.59;82.95
55470;BME280;41334;47.872;16.384;2023-05-16T10:50:38;98635.56;;;13.56;81.50
55470;BME280;41334;47.872;16.384;2023-05-16T11:01:25;98597.88;;;13.34;82.81
55470;BME280;41334;47.872;16.384;2023-05-16T11:06:32;98579.28;;;12.84;87.43
55470;BME280;41334;47.872;16.384;2023-05-16T11:11:51;98564.69;;;12.66;91.30
55470;BME280;41334;47.872;16.384;2023-05-16T11:17:14;98581.00;;;12.68;91.59
55470;BME280;41334;47.872;16.384;2023-05-16T11:22:22;98582.66;;;12.90;92.02
55470;BME280;41334;47.872;16.384;2023-05-16T11:32:27;98559.03;;;12.83;87.40
55470;BME280;41334;47.872;16.384;2023-05-16T11:37:28;98557.66;;;13.19;88.16
55470;BME280;41334;47.872;16.384;2023-05-16T11:42:33;98563.19;;;13.19;86.73
55470;BME280;41334;47.872;16.384;2023-05-16T11:47:38;98568.41;;;13.21;86.17
55470;BME280;41334;47.872;16.384;2023-05-16T11:52:45;98547.56;;;13.56;88.34
55470;BME280;41334;47.872;16.384;2023-05-16T11:57:48;98542.94;;;13.48;85.88
55470;BME280;41334;47.872;16.384;2023-05-16T12:02:53;98536.09;;;13.46;85.19
55470;BME280;41334;47.872;16.384;2023-05-16T12:07:56;98523.31;;;13.53;85.64
55470;BME280;41334;47.872;16.384;2023-05-16T12:12:58;98502.81;;;13.46;83.20
55470;BME280;41334;47.872;16.384;2023-05-16T12:18:00;98494.50;;;13.58;81.84
55470;BME280;41334;47.872;16.384;2023-05-16T12:23:03;98509.50;;;13.90;81.57
55470;BME280;41334;47.872;16.384;2023-05-16T12:28:07;98501.28;;;13.69;82.07
55470;BME280;41334;47.872;16.384;2023-05-16T12:33:10;98515.66;;;13.50;82.76
55470;BME280;41334;47.872;16.384;2023-05-16T12:38:14;98512.28;;;13.45;84.15
55470;BME280;41334;47.872;16.384;2023-05-16T12:43:21;98506.19;;;13.30;81.69
55470;BME280;41334;47.872;16.384;2023-05-16T12:48:31;98500.53;;;13.27;83.50
55470;BME280;41334;47.872;16.384;2023-05-16T12:53:40;98485.84;;;13.05;82.87
55470;BME280;41334;47.872;16.384;2023-05-16T12:58:42;98478.47;;;13.09;83.88
55470;BME280;41334;47.872;16.384;2023-05-16T13:03:44;98462.38;;;13.24;82.27
55470;BME280;41334;47.872;16.384;2023-05-16T13:08:47;98456.63;;;13.29;81.14
55470;BME280;41334;47.872;16.384;2023-05-16T13:13:48;98470.72;;;13.24;82.02
55470;BME280;41334;47.872;16.384;2023-05-16T13:18:50;98475.09;;;13.25;81.23
55470;BME280;41334;47.872;16.384;2023-05-16T13:23:53;98497.16;;;13.00;82.78
55470;BME280;41334;47.872;16.384;2023-05-16T13:28:54;98490.16;;;12.94;82.93
55470;BME280;41334;47.872;16.384;2023-05-16T13:33:56;98473.00;;;13.01;83.77
55470;BME280;41334;47.872;16.384;2023-05-16T13:38:59;98450.94;;;13.04;83.60
55470;BME280;41334;47.872;16.384;2023-05-16T13:44:01;98456.06;;;13.35;82.66
55470;BME280;41334;47.872;16.384;2023-05-16T13:49:03;98441.41;;;13.35;82.17
55470;BME280;41334;47.872;16.384;2023-05-16T13:54:05;98438.34;;;13.61;80.05
55470;BME280;41334;47.872;16.384;2023-05-16T13:59:06;98450.84;;;13.79;79.00
55470;BME280;41334;47.872;16.384;2023-05-16T14:04:12;98453.19;;;13.89;77.58
55470;BME280;41334;47.872;16.384;2023-05-16T14:09:13;98453.53;;;14.00;78.29
55470;BME280;41334;47.872;16.384;2023-05-16T14:14:15;98459.78;;;14.09;76.89
55470;BME280;41334;47.872;16.384;2023-05-16T14:19:17;98447.97;;;13.76;76.86
55470;BME280;41334;47.872;16.384;2023-05-16T14:24:20;98428.53;;;13.63;79.45
55470;BME280;41334;47.872;16.384;2023-05-16T14:29:22;98408.84;;;13.56;79.82
55470;BME280;41334;47.872;16.384;2023-05-16T14:34:24;98417.44;;;13.63;80.85
55470;BME280;41334;47.872;16.384;2023-05-16T14:39:26;98414.63;;;13.51;80.77
55470;BME280;41334;47.872;16.384;2023-05-16T14:44:29;98410.44;;;13.45;80.11
55470;BME280;41334;47.872;16.384;2023-05-16T14:49:32;98408.19;;;13.59;80.35
55470;BME280;41334;47.872;16.384;2023-05-16T14:54:33;98401.69;;;13.68;79.32
55470;BME280;41334;47.872;16.384;2023-05-16T14:59:36;98410.00;;;13.55;79.25
55470;BME280;41334;47.872;16.384;2023-05-16T15:04:38;98401.09;;;13.38;78.93
55470;BME280;41334;47.872;16.384;2023-05-16T15:09:40;98392.59;;;13.22;79.55
55470;BME280;41334;47.872;16.384;2023-05-16T15:14:42;98402.00;;;13.08;80.54
55470;BME280;41334;47.872;16.384;2023-05-16T15:19:44;98412.88;;;13.14;80.16
55470;BME280;41334;47.872;16.384;2023-05-16T15:24:48;98418.41;;;13.14;80.38
55470;BME280;41334;47.872;16.384;2023-05-16T15:29:50;98409.50;;;13.08;81.34
55470;BME280;41334;47.872;16.384;2023-05-16T15:34:52;98398.28;;;13.04;80.78
55470;BME280;41334;47.872;16.384;2023-05-16T15:39:54;98394.69;;;13.04;80.95
55470;BME280;41334;47.872;16.384;2023-05-16T15:44:56;98387.84;;;12.89;81.88
55470;BME280;41334;47.872;16.384;2023-05-16T15:49:58;98374.41;;;12.79;82.03
55470;BME280;41334;47.872;16.384;2023-05-16T15:55:01;98373.13;;;12.76;81.95
55470;BME280;41334;47.872;16.384;2023-05-16T16:00:04;98362.72;;;12.73;81.82
55470;BME280;41334;47.872;16.384;2023-05-16T16:05:12;98359.44;;;12.59;82.98
55470;BME280;41334;47.872;16.384;2023-05-16T16:10:14;98363.34;;;12.58;82.95
55470;BME280;41334;47.872;16.384;2023-05-16T16:15:16;98353.94;;;12.50;82.29
55470;BME280;41334;47.872;16.384;2023-05-16T16:20:19;98357.72;;;12.46;82.88
55470;BME280;41334;47.872;16.384;2023-05-16T16:25:21;98368.34;;;12.44;82.25
55470;BME280;41334;47.872;16.384;2023-05-16T16:30:23;98377.91;;;12.46;82.32
55470;BME280;41334;47.872;16.384;2023-05-16T16:35:25;98370.75;;;12.45;82.47
55470;BME280;41334;47.872;16.384;2023-05-16T16:40:27;98370.84;;;12.37;83.44
55470;BME280;41334;47.872;16.384;2023-05-16T16:45:29;98364.81;;;12.35;82.68
55470;BME280;41334;47.872;16.384;2023-05-16T16:50:31;98370.72;;;12.33;83.27
55470;BME280;41334;47.872;16.384;2023-05-16T16:55:34;98376.75;;;12.05;85.79
55470;BME280;41334;47.872;16.384;2023-05-16T17:00:40;98368.38;;;11.93;86.76
55470;BME280;41334;47.872;16.384;2023-05-16T17:05:42;98354.34;;;11.60;90.93
55470;BME280;41334;47.872;16.384;2023-05-16T17:10:45;98355.72;;;11.45;91.33
55470;BME280;41334;47.872;16.384;2023-05-16T17:15:47;98371.00;;;11.43;91.97
55470;BME280;41334;47.872;16.384;2023-05-16T17:20:49;98365.66;;;11.38;92.87
55470;BME280;41334;47.872;16.384;2023-05-16T17:25:52;98359.03;;;11.30;92.30
55470;BME280;41334;47.872;16.384;2023-05-16T17:30:54;98358.53;;;11.28;92.71
55470;BME280;41334;47.872;16.384;2023-05-16T17:35:56;98351.72;;;11.25;92.33
55470;BME280;41334;47.872;16.384;2023-05-16T17:40:58;98346.53;;;11.24;92.34
55470;BME280;41334;47.872;16.384;2023-05-16T17:46:01;98357.25;;;11.25;92.10
55470;BME280;41334;47.872;16.384;2023-05-16T17:51:03;98370.28;;;11.25;92.28
55470;BME280;41334;47.872;16.384;2023-05-16T17:56:05;98355.31;;;11.26;92.56
55470;BME280;41334;47.872;16.384;2023-05-16T18:01:08;98362.91;;;11.29;92.04
55470;BME280;41334;47.872;16.384;2023-05-16T18:06:10;98368.94;;;11.31;91.77
55470;BME280;41334;47.872;16.384;2023-05-16T18:11:13;98365.50;;;11.34;91.49
55470;BME280;41334;47.872;16.384;2023-05-16T18:16:15;98377.06;;;11.36;91.70
55470;BME280;41334;47.872;16.384;2023-05-16T18:21:17;98372.50;;;11.40;92.11
55470;BME280;41334;47.872;16.384;2023-05-16T18:26:19;98375.56;;;11.39;92.19
55470;BME280;41334;47.872;16.384;2023-05-16T18:31:22;98389.56;;;11.42;91.91
55470;BME280;41334;47.872;16.384;2023-05-16T18:36:23;98399.81;;;11.42;92.58
55470;BME280;41334;47.872;16.384;2023-05-16T18:41:25;98403.09;;;11.35;92.63
55470;BME280;41334;47.872;16.384;2023-05-16T18:46:27;98405.50;;;11.37;93.44
55470;BME280;41334;47.872;16.384;2023-05-16T18:51:29;98419.97;;;11.34;93.87
55470;BME280;41334;47.872;16.384;2023-05-16T18:56:31;98435.75;;;11.33;93.75
55470;BME280;41334;47.872;16.384;2023-05-16T19:01:34;98458.22;;;11.32;93.78
55470;BME280;41334;47.872;16.384;2023-05-16T19:06:36;98470.56;;;11.34;94.18
55470;BME280;41334;47.872;16.384;2023-05-16T19:11:38;98486.03;;;11.35;94.05
55470;BME280;41334;47.872;16.384;2023-05-16T19:16:43;98489.59;;;11.36;93.75
55470;BME280;41334;47.872;16.384;2023-05-16T19:21:45;98482.28;;;11.31;93.77
55470;BME280;41334;47.872;16.384;2023-05-16T19:26:47;98442.94;;;11.25;94.10
55470;BME280;41334;47.872;16.384;2023-05-16T19:31:49;98397.28;;;11.19;94.96
55470;BME280;41334;47.872;16.384;2023-05-16T19:36:53;98385.09;;;11.12;95.65
55470;BME280;41334;47.872;16.384;2023-05-16T19:41:55;98397.63;;;11.09;96.23
55470;BME280;41334;47.872;16.384;2023-05-16T19:46:57;98419.22;;;11.07;96.45
55470;BME280;41334;47.872;16.384;2023-05-16T19:51:59;98423.47;;;11.05;96.51
55470;BME280;41334;47.872;16.384;2023-05-16T19:57:03;98420.72;;;11.05;96.82
55470;BME280;41334;47.872;16.384;2023-05-16T20:02:05;98421.03;;;11.03;96.78
55470;BME280;41334;47.872;16.384;2023-05-16T20:07:08;98426.41;;;11.08;96.95
55470;BME280;41334;47.872;16.384;2023-05-16T20:12:09;98429.16;;;11.08;97.02
55470;BME280;41334;47.872;16.384;2023-05-16T20:17:13;98424.44;;;11.09;96.97
55470;BME280;41334;47.872;16.384;2023-05-16T20:22:15;98421.19;;;11.07;96.97
55470;BME280;41334;47.872;16.384;2023-05-16T20:27:17;98420.38;;;11.06;96.46
55470;BME280;41334;47.872;16.384;2023-05-16T20:32:19;98418.91;;;11.09;96.76
55470;BME280;41334;47.872;16.384;2023-05-16T20:37:21;98424.44;;;11.09;96.96
55470;BME280;41334;47.872;16.384;2023-05-16T20:42:26;98417.78;;;11.10;97.25
55470;BME280;41334;47.872;16.384;2023-05-16T20:47:29;98416.16;;;11.09;97.08
55470;BME280;41334;47.872;16.384;2023-05-16T20:52:31;98419.41;;;11.11;97.20
55470;BME280;41334;47.872;16.384;2023-05-16T20:57:33;98413.06;;;11.10;97.24
55470;BME280;41334;47.872;16.384;2023-05-16T21:02:35;98426.88;;;11.10;96.94
55470;BME280;41334;47.872;16.384;2023-05-16T21:07:37;98418.59;;;11.10;96.68
55470;BME280;41334;47.872;16.384;2023-05-16T21:12:39;98424.91;;;11.11;96.86
55470;BME280;41334;47.872;16.384;2023-05-16T21:17:40;98430.09;;;11.12;97.06
55470;BME280;41334;47.872;16.384;2023-05-16T21:22:42;98430.28;;;11.07;97.10
55470;BME280;41334;47.872;16.384;2023-05-16T21:27:46;98437.47;;;11.08;97.24
55470;BME280;41334;47.872;16.384;2023-05-16T21:32:48;98429.47;;;11.07;97.23
55470;BME280;41334;47.872;16.384;2023-05-16T21:37:52;98433.03;;;11.07;97.00
55470;BME280;41334;47.872;16.384;2023-05-16T21:43:22;98434.84;;;11.03;97.18
55470;BME280;41334;47.872;16.384;2023-05-16T21:48:32;98439.38;;;11.08;97.29
55470;BME280;41334;47.872;16.384;2023-05-16T21:53:35;98447.38;;;11.09;97.33
55470;BME280;41334;47.872;16.384;2023-05-16T21:58:42;98443.97;;;11.04;97.20
55470;BME280;41334;47.872;16.384;2023-05-16T22:03:52;98445.25;;;11.06;97.43
55470;BME280;41334;47.872;16.384;2023-05-16T22:08:55;98440.84;;;11.05;97.20
55470;BME280;41334;47.872;16.384;2023-05-16T22:13:57;98431.94;;;11.08;97.40
55470;BME280;41334;47.872;16.384;2023-05-16T22:18:59;98435.81;;;11.07;97.21
55470;BME280;41334;47.872;16.384;2023-05-16T22:24:01;98437.47;;;11.08;96.70
55470;BME280;41334;47.872;16.384;2023-05-16T22:29:03;98443.28;;;11.07;96.89
55470;BME280;41334;47.872;16.384;2023-05-16T22:34:04;98429.47;;;11.07;96.62
55470;BME280;41334;47.872;16.384;2023-05-16T22:39:06;98439.72;;;11.06;96.49
55470;BME280;41334;47.872;16.384;2023-05-16T22:44:09;98444.44;;;11.06;96.49
55470;BME280;41334;47.872;16.384;2023-05-16T22:49:10;98456.97;;;11.03;96.19
55470;BME280;41334;47.872;16.384;2023-05-16T22:54:12;98453.06;;;11.04;96.22
55470;BME280;41334;47.872;16.384;2023-05-16T22:59:14;98449.50;;;11.04;95.95
55470;BME280;41334;47.872;16.384;2023-05-16T23:04:16;98461.97;;;11.01;95.75
55470;BME280;41334;47.872;16.384;2023-05-16T23:09:18;98456.47;;;11.01;95.92
55470;BME280;41334;47.872;16.384;2023-05-16T23:14:19;98452.56;;;11.02;96.06
55470;BME280;41334;47.872;16.384;2023-05-16T23:19:21;98466.69;;;11.00;95.82
55470;BME280;41334;47.872;16.384;2023-05-16T23:24:23;98459.56;;;10.99;96.08
55470;BME280;41334;47.872;16.384;2023-05-16T23:29:25;98460.19;;;10.96;96.21
55470;BME280;41334;47.872;16.384;2023-05-16T23:34:27;98470.63;;;10.99;96.22
55470;BME280;41334;47.872;16.384;2023-05-16T23:39:29;98466.53;;;10.97;95.97
55470;BME280;41334;47.872;16.384;2023-05-16T23:44:30;98471.91;;;10.93;95.94
55470;BME280;41334;47.872;16.384;2023-05-16T23:49:34;98467.03;;;10.90;95.26
55470;BME280;41334;47.872;16.384;2023-05-16T23:54:35;98486.69;;;10.89;95.16
55470;BME280;41334;47.872;16.384;2023-05-16T23:59:37;98483.75;;;10.85;94.69
